createdAt,value
2019-02-15T00:02:10.396Z,-1.40
2019-02-15T00:04:39.191Z,-1.40
2019-02-15T00:07:08.122Z,-1.50
2019-02-15T00:09:36.950Z,-1.50
2019-02-15T00:12:05.850Z,-1.50
2019-02-15T00:14:46.822Z,-1.50
2019-02-15T00:17:18.994Z,-1.50
2019-02-15T00:19:51.579Z,-1.50
2019-02-15T00:22:20.374Z,-1.50
2019-02-15T00:24:49.214Z,-1.40
2019-02-15T00:27:18.091Z,-1.40
2019-02-15T00:29:48.162Z,-1.40
2019-02-15T00:32:17.381Z,-1.50
2019-02-15T00:34:46.631Z,-1.50
2019-02-15T00:37:15.405Z,-1.50
2019-02-15T00:39:44.363Z,-1.50
2019-02-15T00:42:13.247Z,-1.50
2019-02-15T00:44:42.383Z,-1.60
2019-02-15T00:47:32.999Z,-1.60
2019-02-15T00:50:13.226Z,-1.60
2019-02-15T00:53:04.247Z,-1.70
2019-02-15T00:55:58.452Z,-1.70
2019-02-15T00:58:55.931Z,-1.70
2019-02-15T01:01:42.726Z,-1.70
2019-02-15T01:04:28.878Z,-1.70
2019-02-15T01:07:13.184Z,-1.70
2019-02-15T01:09:58.303Z,-1.50
2019-02-15T01:12:33.483Z,-1.60
2019-02-15T01:15:02.755Z,-1.70
2019-02-15T01:17:31.590Z,-1.70
2019-02-15T01:20:00.782Z,-1.70
2019-02-15T01:22:29.768Z,-1.60
2019-02-15T01:24:59.589Z,-1.60
2019-02-15T01:27:38.744Z,-1.60
2019-02-15T01:30:32.729Z,-1.60
2019-02-15T01:33:17.599Z,-1.80
2019-02-15T01:35:56.094Z,-1.80
2019-02-15T01:38:43.992Z,-1.70
2019-02-15T01:41:31.880Z,-1.80
2019-02-15T01:44:06.483Z,-1.80
2019-02-15T01:46:41.258Z,-1.90
2019-02-15T01:49:10.167Z,-1.90
2019-02-15T01:51:39.107Z,-2.00
2019-02-15T01:54:08.014Z,-2.00
2019-02-15T01:56:36.809Z,-1.90
2019-02-15T01:59:05.631Z,-1.90
2019-02-15T02:01:34.510Z,-1.80
2019-02-15T02:04:03.943Z,-1.80
2019-02-15T02:06:32.755Z,-1.80
2019-02-15T02:09:01.630Z,-1.80
2019-02-15T02:11:32.079Z,-1.80
2019-02-15T02:14:01.095Z,-1.80
2019-02-15T02:16:29.875Z,-1.80
2019-02-15T02:18:58.796Z,-1.90
2019-02-15T02:21:27.604Z,-2.00
2019-02-15T02:23:56.826Z,-2.00
2019-02-15T02:26:25.846Z,-2.00
2019-02-15T02:28:54.723Z,-2.00
2019-02-15T02:31:23.620Z,-2.00
2019-02-15T02:33:52.672Z,-2.00
2019-02-15T02:36:21.723Z,-2.10
2019-02-15T02:38:50.863Z,-2.20
2019-02-15T02:41:19.662Z,-2.20
2019-02-15T02:43:48.506Z,-2.20
2019-02-15T02:46:17.332Z,-2.20
2019-02-15T02:48:46.183Z,-2.30
2019-02-15T02:51:15.285Z,-2.20
2019-02-15T02:53:44.143Z,-2.20
2019-02-15T02:56:13.020Z,-2.30
2019-02-15T02:58:41.819Z,-2.20
2019-02-15T03:01:10.618Z,-2.20
2019-02-15T03:03:39.450Z,-2.20
2019-02-15T03:06:08.250Z,-2.30
2019-02-15T03:08:37.091Z,-2.30
2019-02-15T03:11:05.967Z,-2.30
2019-02-15T03:13:34.747Z,-2.20
2019-02-15T03:16:03.537Z,-2.20
2019-02-15T03:18:32.402Z,-2.10
2019-02-15T03:21:01.294Z,-2.20
2019-02-15T03:23:30.262Z,-2.20
2019-02-15T03:25:59.180Z,-2.30
2019-02-15T03:28:28.014Z,-2.30
2019-02-15T03:30:56.902Z,-2.40
2019-02-15T03:33:25.764Z,-2.40
2019-02-15T03:35:57.549Z,-2.40
2019-02-15T03:38:35.579Z,-2.50
2019-02-15T03:41:05.813Z,-2.40
2019-02-15T03:43:34.662Z,-2.40
2019-02-15T03:46:03.707Z,-2.40
2019-02-15T03:48:32.825Z,-2.40
2019-02-15T03:51:01.588Z,-2.40
2019-02-15T03:53:30.460Z,-2.40
2019-02-15T03:55:59.647Z,-2.40
2019-02-15T03:58:28.469Z,-2.40
2019-02-15T04:00:57.376Z,-2.40
2019-02-15T04:03:27.232Z,-2.40
2019-02-15T04:05:56.303Z,-2.40
2019-02-15T04:08:25.228Z,-2.50
2019-02-15T04:10:54.180Z,-2.50
2019-02-15T04:13:23.176Z,-2.40
2019-02-15T04:15:52.255Z,-2.30
2019-02-15T04:18:21.510Z,-2.40
2019-02-15T04:20:50.388Z,-2.40
2019-02-15T04:23:19.215Z,-2.40
2019-02-15T04:25:48.161Z,-2.50
2019-02-15T04:28:17.310Z,-2.50
2019-02-15T04:30:46.062Z,-2.50
2019-02-15T04:33:15.275Z,-2.60
2019-02-15T04:35:44.070Z,-2.50
2019-02-15T04:38:12.854Z,-2.50
2019-02-15T04:40:41.659Z,-2.50
2019-02-15T04:43:10.440Z,-2.50
2019-02-15T04:45:39.252Z,-2.50
2019-02-15T04:48:08.051Z,-2.50
2019-02-15T04:50:36.872Z,-2.50
2019-02-15T04:53:05.644Z,-2.50
2019-02-15T04:55:34.406Z,-2.50
2019-02-15T04:58:03.287Z,-2.40
2019-02-15T05:00:32.468Z,-2.50
2019-02-15T05:03:01.273Z,-2.50
2019-02-15T05:05:30.120Z,-2.60
2019-02-15T05:07:59.438Z,-2.60
2019-02-15T05:10:28.570Z,-2.60
2019-02-15T05:12:57.422Z,-2.60
2019-02-15T05:15:26.550Z,-2.70
2019-02-15T05:17:55.362Z,-2.70
2019-02-15T05:20:24.157Z,-2.70
2019-02-15T05:22:53.298Z,-2.80
2019-02-15T05:25:22.105Z,-2.80
2019-02-15T05:27:51.207Z,-2.80
2019-02-15T05:30:20.002Z,-2.70
2019-02-15T05:32:48.800Z,-2.70
2019-02-15T05:35:17.650Z,-2.70
2019-02-15T05:37:46.395Z,-2.80
2019-02-15T05:40:15.219Z,-2.80
2019-02-15T05:42:43.999Z,-2.80
2019-02-15T05:45:12.939Z,-2.70
2019-02-15T05:47:41.743Z,-2.70
2019-02-15T05:50:10.582Z,-2.70
2019-02-15T05:52:40.116Z,-2.70
2019-02-15T05:55:09.031Z,-2.70
2019-02-15T05:57:37.928Z,-2.70
2019-02-15T06:00:08.020Z,-2.70
2019-02-15T06:02:56.096Z,-2.70
2019-02-15T06:05:24.962Z,-2.70
2019-02-15T06:07:53.876Z,-2.60
2019-02-15T06:10:23.186Z,-2.50
2019-02-15T06:12:51.964Z,-2.50
2019-02-15T06:15:20.863Z,-2.60
2019-02-15T06:17:49.766Z,-2.60
2019-02-15T06:20:18.594Z,-2.60
2019-02-15T06:22:47.470Z,-2.60
2019-02-15T06:25:16.342Z,-2.60
2019-02-15T06:27:45.162Z,-2.60
2019-02-15T06:30:14.051Z,-2.60
2019-02-15T06:32:42.878Z,-2.60
2019-02-15T06:35:18.571Z,-2.60
2019-02-15T06:37:56.379Z,-2.60
2019-02-15T06:40:34.866Z,-2.50
2019-02-15T06:43:03.995Z,-2.50
2019-02-15T06:45:32.800Z,-2.40
2019-02-15T06:48:01.598Z,-2.30
2019-02-15T06:50:30.735Z,-2.20
2019-02-15T06:52:59.803Z,-2.10
2019-02-15T06:55:28.983Z,-2.10
2019-02-15T06:57:57.782Z,-2.00
2019-02-15T07:00:48.984Z,-2.00
2019-02-15T07:03:36.838Z,-2.00
2019-02-15T07:06:05.750Z,-2.00
2019-02-15T07:08:34.905Z,-2.00
2019-02-15T07:11:03.826Z,-1.90
2019-02-15T07:13:32.636Z,-1.80
2019-02-15T07:16:01.409Z,-1.70
2019-02-15T07:18:30.186Z,-1.60
2019-02-15T07:20:59.031Z,-1.40
2019-02-15T07:23:27.786Z,-1.30
2019-02-15T07:25:56.636Z,-1.10
2019-02-15T07:28:25.895Z,-0.80
2019-02-15T07:30:54.681Z,-0.50
2019-02-15T07:33:23.483Z,-0.20
2019-02-15T07:35:52.342Z,0.10
2019-02-15T07:38:21.130Z,0.40
2019-02-15T07:40:50.239Z,0.70
2019-02-15T07:43:19.034Z,1.20
2019-02-15T07:45:47.990Z,1.60
2019-02-15T07:48:17.099Z,2.00
2019-02-15T07:50:45.863Z,2.20
2019-02-15T07:53:14.652Z,2.30
2019-02-15T07:55:43.792Z,2.40
2019-02-15T07:58:12.630Z,2.50
2019-02-15T08:00:41.502Z,2.50
2019-02-15T08:03:10.676Z,2.80
2019-02-15T08:05:39.459Z,2.90
2019-02-15T08:08:08.222Z,3.10
2019-02-15T08:10:37.022Z,3.40
2019-02-15T08:13:05.809Z,3.60
2019-02-15T08:15:36.461Z,3.80
2019-02-15T08:18:05.438Z,4.10
2019-02-15T08:20:34.210Z,4.50
2019-02-15T08:23:03.377Z,4.80
2019-02-15T08:25:32.188Z,4.90
2019-02-15T08:28:00.959Z,5.30
2019-02-15T08:30:30.081Z,5.60
2019-02-15T08:32:59.167Z,6.10
2019-02-15T08:35:27.942Z,6.10
2019-02-15T08:37:56.726Z,6.20
2019-02-15T08:40:25.530Z,6.50
2019-02-15T08:42:56.031Z,6.50
2019-02-15T08:45:24.958Z,6.60
2019-02-15T08:47:53.754Z,6.70
2019-02-15T08:50:23.010Z,6.90
2019-02-15T08:52:52.159Z,6.90
2019-02-15T08:55:21.363Z,7.30
2019-02-15T08:57:50.142Z,7.40
2019-02-15T09:00:19.018Z,7.80
2019-02-15T09:02:48.035Z,8.00
2019-02-15T09:05:16.962Z,8.10
2019-02-15T09:07:45.806Z,8.50
2019-02-15T09:10:14.734Z,8.70
2019-02-15T09:12:43.643Z,8.80
2019-02-15T09:15:15.167Z,8.80
2019-02-15T09:17:44.090Z,8.80
2019-02-15T09:20:13.210Z,8.70
2019-02-15T09:22:42.017Z,8.90
2019-02-15T09:25:11.142Z,9.00
2019-02-15T09:28:14.503Z,9.40
2019-02-15T09:30:46.262Z,9.40
2019-02-15T09:33:15.464Z,9.70
2019-02-15T09:35:44.230Z,9.70
2019-02-15T09:38:13.086Z,10.20
2019-02-15T09:40:41.911Z,10.40
2019-02-15T09:43:11.730Z,10.90
2019-02-15T09:45:40.575Z,11.00
2019-02-15T09:48:09.829Z,10.80
2019-02-15T09:50:38.674Z,11.20
2019-02-15T09:53:07.489Z,11.80
2019-02-15T09:55:36.334Z,12.20
2019-02-15T09:58:05.243Z,12.90
2019-02-15T10:00:34.048Z,12.70
2019-02-15T10:03:03.250Z,13.00
2019-02-15T10:05:32.096Z,12.70
2019-02-15T10:08:00.955Z,12.80
2019-02-15T10:10:29.797Z,12.70
2019-02-15T10:12:59.110Z,12.80
2019-02-15T10:15:27.957Z,13.30
2019-02-15T10:17:57.130Z,13.30
2019-02-15T10:20:26.036Z,13.30
2019-02-15T10:22:54.845Z,13.50
2019-02-15T10:25:23.698Z,13.60
2019-02-15T10:27:52.579Z,13.30
2019-02-15T10:30:21.707Z,13.50
2019-02-15T10:32:50.518Z,13.70
2019-02-15T10:35:19.333Z,14.60
2019-02-15T10:37:48.147Z,14.70
2019-02-15T10:40:16.960Z,15.00
2019-02-15T10:42:46.073Z,14.90
2019-02-15T10:45:15.142Z,14.90
2019-02-15T10:47:44.126Z,15.30
2019-02-15T10:50:13.019Z,15.70
2019-02-15T10:52:41.866Z,15.90
2019-02-15T10:55:10.855Z,15.80
2019-02-15T10:57:40.063Z,16.00
2019-02-15T11:00:13.006Z,15.90
2019-02-15T11:02:41.875Z,15.90
2019-02-15T11:05:11.098Z,16.00
2019-02-15T11:07:40.061Z,16.60
2019-02-15T11:10:08.995Z,17.00
2019-02-15T11:12:37.826Z,17.30
2019-02-15T11:15:07.482Z,17.50
2019-02-15T11:17:36.300Z,17.50
2019-02-15T11:20:05.416Z,17.80
2019-02-15T11:22:34.179Z,18.20
2019-02-15T11:25:02.995Z,17.70
2019-02-15T11:27:31.822Z,17.30
2019-02-15T11:30:00.703Z,17.30
2019-02-15T11:32:29.517Z,17.60
2019-02-15T11:34:58.364Z,17.90
2019-02-15T11:37:27.252Z,17.80
2019-02-15T11:39:56.115Z,17.50
2019-02-15T11:42:25.270Z,17.10
2019-02-15T11:44:54.239Z,17.80
2019-02-15T11:47:23.073Z,18.40
2019-02-15T11:49:51.910Z,18.60
2019-02-15T11:52:20.794Z,18.20
2019-02-15T11:54:49.840Z,18.50
2019-02-15T11:57:18.659Z,18.80
2019-02-15T11:59:47.794Z,18.50
2019-02-15T12:02:16.719Z,19.00
2019-02-15T12:04:45.501Z,19.00
2019-02-15T12:07:14.398Z,19.00
2019-02-15T12:09:43.291Z,19.00
2019-02-15T12:12:12.290Z,19.00
2019-02-15T12:14:41.355Z,19.60
2019-02-15T12:17:10.153Z,20.10
2019-02-15T12:19:38.987Z,19.50
2019-02-15T12:22:07.913Z,18.80
2019-02-15T12:24:36.741Z,18.70
2019-02-15T12:27:05.571Z,19.60
2019-02-15T12:29:34.718Z,19.60
2019-02-15T12:32:03.707Z,20.00
2019-02-15T12:34:32.558Z,19.90
2019-02-15T12:37:01.363Z,19.90
2019-02-15T12:39:30.200Z,20.20
2019-02-15T12:41:59.011Z,20.50
2019-02-15T12:44:27.931Z,20.60
2019-02-15T12:46:56.900Z,20.90
2019-02-15T12:49:25.746Z,20.40
2019-02-15T12:51:54.685Z,20.70
2019-02-15T12:54:23.511Z,20.60
2019-02-15T12:56:52.389Z,21.00
2019-02-15T12:59:21.571Z,21.20
2019-02-15T13:01:50.477Z,20.90
2019-02-15T13:04:19.719Z,20.00
2019-02-15T13:06:48.624Z,19.70
2019-02-15T13:09:17.414Z,20.00
2019-02-15T13:11:46.334Z,20.20
2019-02-15T13:14:15.151Z,20.30
2019-02-15T13:16:44.347Z,20.60
2019-02-15T13:19:13.300Z,20.70
2019-02-15T13:21:42.541Z,20.60
2019-02-15T13:24:11.438Z,20.70
2019-02-15T13:26:40.231Z,21.00
2019-02-15T13:29:09.171Z,21.20
2019-02-15T13:31:38.082Z,21.70
2019-02-15T13:34:07.015Z,21.80
2019-02-15T13:36:35.902Z,22.10
2019-02-15T13:39:06.095Z,22.20
2019-02-15T13:41:35.382Z,22.40
2019-02-15T13:44:04.385Z,22.20
2019-02-15T13:46:33.442Z,22.00
2019-02-15T13:49:02.966Z,21.80
2019-02-15T13:51:31.831Z,22.10
2019-02-15T13:54:00.744Z,22.10
2019-02-15T13:56:29.586Z,21.90
2019-02-15T13:58:58.495Z,22.20
2019-02-15T14:01:27.413Z,22.40
2019-02-15T14:03:56.284Z,22.20
2019-02-15T14:06:25.210Z,22.40
2019-02-15T14:08:54.059Z,22.70
2019-02-15T14:11:22.847Z,23.10
2019-02-15T14:13:51.681Z,22.40
2019-02-15T14:16:20.555Z,22.40
2019-02-15T14:18:50.220Z,22.70
2019-02-15T14:21:19.069Z,22.70
2019-02-15T14:23:48.076Z,22.10
2019-02-15T14:26:17.033Z,21.70
2019-02-15T14:28:46.631Z,21.70
2019-02-15T14:31:15.565Z,21.40
2019-02-15T14:33:44.529Z,21.30
2019-02-15T14:36:13.507Z,21.10
2019-02-15T14:38:42.405Z,21.40
2019-02-15T14:41:11.648Z,21.50
2019-02-15T14:43:40.706Z,21.40
2019-02-15T14:46:09.561Z,21.30
2019-02-15T14:48:38.418Z,21.20
2019-02-15T14:51:07.224Z,20.90
2019-02-15T14:53:36.046Z,21.30
2019-02-15T14:56:04.875Z,20.90
2019-02-15T14:58:33.734Z,20.70
2019-02-15T15:01:02.607Z,20.80
2019-02-15T15:03:31.658Z,21.30
2019-02-15T15:06:00.498Z,21.30
2019-02-15T15:08:30.797Z,21.40
2019-02-15T15:10:59.811Z,21.40
2019-02-15T15:13:28.607Z,21.20
2019-02-15T15:15:57.806Z,20.60
2019-02-15T15:18:26.677Z,20.30
2019-02-15T15:20:55.506Z,20.50
2019-02-15T15:23:24.556Z,20.50
2019-02-15T15:25:53.443Z,20.40
2019-02-15T15:28:22.344Z,20.50
2019-02-15T15:30:51.228Z,20.50
2019-02-15T15:33:20.141Z,20.20
2019-02-15T15:35:49.059Z,20.10
2019-02-15T15:38:17.922Z,19.80
2019-02-15T15:40:46.782Z,20.00
2019-02-15T15:43:15.763Z,19.60
2019-02-15T15:45:44.603Z,19.30
2019-02-15T15:48:22.163Z,19.10
2019-02-15T15:50:44.251Z,18.80
2019-02-15T15:53:13.086Z,18.70
2019-02-15T15:55:41.936Z,18.00
2019-02-15T15:58:10.795Z,18.00
2019-02-15T16:00:39.654Z,18.10
2019-02-15T16:03:08.529Z,17.90
2019-02-15T16:05:37.386Z,17.30
2019-02-15T16:08:06.246Z,16.20
2019-02-15T16:10:35.230Z,15.20
2019-02-15T16:13:04.138Z,14.30
2019-02-15T16:15:33.013Z,13.50
2019-02-15T16:18:04.110Z,12.80
2019-02-15T16:20:33.379Z,12.40
2019-02-15T16:23:02.279Z,11.90
2019-02-15T16:25:31.100Z,11.50
2019-02-15T16:27:59.961Z,11.10
2019-02-15T16:30:28.965Z,10.90
2019-02-15T16:33:00.116Z,10.60
2019-02-15T16:35:28.667Z,10.30
2019-02-15T16:37:57.738Z,10.10
2019-02-15T16:40:26.590Z,9.90
2019-02-15T16:42:55.569Z,9.70
2019-02-15T16:45:28.771Z,9.40
2019-02-15T16:47:57.628Z,9.20
2019-02-15T16:50:26.551Z,9.00
2019-02-15T16:52:55.367Z,8.70
2019-02-15T16:55:24.502Z,8.40
2019-02-15T16:57:53.481Z,8.20
2019-02-15T17:00:22.506Z,7.90
2019-02-15T17:02:51.402Z,7.70
2019-02-15T17:05:20.367Z,7.50
2019-02-15T17:07:49.178Z,7.40
2019-02-15T17:10:18.138Z,7.20
2019-02-15T17:12:47.459Z,7.10
2019-02-15T17:15:19.383Z,6.90
2019-02-15T17:17:48.269Z,6.70
2019-02-15T17:20:17.073Z,6.60
2019-02-15T17:22:45.937Z,6.40
2019-02-15T17:25:14.767Z,6.30
2019-02-15T17:27:43.623Z,6.20
2019-02-15T17:30:12.750Z,6.20
2019-02-15T17:32:41.615Z,6.20
2019-02-15T17:35:10.577Z,6.10
2019-02-15T17:37:39.476Z,6.00
2019-02-15T17:40:09.716Z,5.90
2019-02-15T17:42:38.907Z,5.90
2019-02-15T17:45:08.830Z,5.80
2019-02-15T17:47:37.683Z,5.60
2019-02-15T17:50:06.782Z,5.50
2019-02-15T17:52:35.712Z,5.40
2019-02-15T17:55:04.675Z,5.30
2019-02-15T17:57:33.666Z,5.20
2019-02-15T18:00:02.752Z,5.20
2019-02-15T18:02:31.654Z,5.20
2019-02-15T18:05:00.538Z,5.20
2019-02-15T18:07:29.371Z,5.20
2019-02-15T18:09:58.168Z,5.10
2019-02-15T18:12:26.957Z,5.00
2019-02-15T18:14:55.818Z,4.90
2019-02-15T18:17:24.631Z,4.80
2019-02-15T18:19:53.416Z,4.70
2019-02-15T18:22:22.234Z,4.70
2019-02-15T18:24:51.118Z,4.60
2019-02-15T18:27:19.935Z,4.60
2019-02-15T18:29:49.007Z,4.60
2019-02-15T18:32:17.803Z,4.60
2019-02-15T18:34:46.645Z,4.50
2019-02-15T18:37:15.502Z,4.40
2019-02-15T18:39:44.354Z,4.30
2019-02-15T18:42:13.162Z,4.20
2019-02-15T18:44:42.051Z,4.20
2019-02-15T18:47:11.072Z,4.00
2019-02-15T18:49:39.908Z,3.90
2019-02-15T18:52:09.011Z,3.90
2019-02-15T18:54:37.815Z,3.80
2019-02-15T18:57:06.727Z,3.70
2019-02-15T18:59:35.594Z,3.60
2019-02-15T19:02:04.468Z,3.50
2019-02-15T19:04:33.242Z,3.50
2019-02-15T19:07:02.087Z,3.40
2019-02-15T19:09:30.862Z,3.30
2019-02-15T19:11:59.943Z,3.30
2019-02-15T19:14:28.746Z,3.20
2019-02-15T19:16:57.519Z,3.10
2019-02-15T19:19:29.126Z,3.10
2019-02-15T19:21:57.205Z,3.00
2019-02-15T19:24:26.039Z,2.90
2019-02-15T19:26:54.889Z,2.90
2019-02-15T19:29:23.688Z,2.90
2019-02-15T19:31:52.621Z,2.80
2019-02-15T19:34:21.734Z,2.80
2019-02-15T19:36:50.642Z,2.80
2019-02-15T19:39:19.564Z,2.70
2019-02-15T19:41:48.352Z,2.60
2019-02-15T19:44:17.180Z,2.60
2019-02-15T19:46:45.959Z,2.60
2019-02-15T19:49:14.798Z,2.50
2019-02-15T19:51:43.603Z,2.40
2019-02-15T19:54:12.370Z,2.40
2019-02-15T19:56:41.258Z,2.30
2019-02-15T19:59:10.115Z,2.30
2019-02-15T20:01:39.200Z,2.40
2019-02-15T20:04:08.241Z,2.40
2019-02-15T20:06:37.042Z,2.40
2019-02-15T20:09:06.423Z,2.40
2019-02-15T20:11:35.238Z,2.30
2019-02-15T20:14:05.639Z,2.20
2019-02-15T20:16:34.443Z,2.20
2019-02-15T20:19:03.228Z,2.20
2019-02-15T20:21:32.135Z,2.10
2019-02-15T20:24:00.934Z,2.00
2019-02-15T20:26:30.027Z,2.00
2019-02-15T20:28:59.159Z,1.90
2019-02-15T20:31:28.061Z,1.90
2019-02-15T20:33:56.885Z,2.00
2019-02-15T20:36:25.723Z,1.90
2019-02-15T20:38:54.523Z,1.90
2019-02-15T20:41:23.328Z,1.90
2019-02-15T20:43:52.151Z,1.80
2019-02-15T20:46:20.995Z,1.70
2019-02-15T20:49:03.822Z,1.70
2019-02-15T20:51:20.747Z,1.60
2019-02-15T20:53:49.573Z,1.60
2019-02-15T20:56:18.363Z,1.60
2019-02-15T20:58:47.291Z,1.50
2019-02-15T21:01:16.105Z,1.50
2019-02-15T21:03:45.214Z,1.60
2019-02-15T21:06:14.763Z,1.50
2019-02-15T21:08:43.896Z,1.50
2019-02-15T21:11:12.714Z,1.40
2019-02-15T21:13:41.554Z,1.40
2019-02-15T21:16:10.367Z,1.30
2019-02-15T21:18:39.197Z,1.30
2019-02-15T21:21:07.999Z,1.20
2019-02-15T21:23:36.810Z,1.20
2019-02-15T21:26:05.666Z,1.10
2019-02-15T21:28:34.504Z,1.10
2019-02-15T21:31:03.359Z,1.10
2019-02-15T21:33:32.237Z,1.10
2019-02-15T21:36:01.778Z,1.00
2019-02-15T21:38:30.585Z,1.00
2019-02-15T21:40:59.722Z,1.00
2019-02-15T21:43:28.559Z,1.00
2019-02-15T21:45:57.662Z,1.00
2019-02-15T21:48:26.515Z,0.90
2019-02-15T21:50:55.418Z,1.00
2019-02-15T21:53:24.306Z,0.90
2019-02-15T21:55:53.435Z,0.90
2019-02-15T21:58:22.244Z,0.90
2019-02-15T22:00:51.122Z,0.90
2019-02-15T22:03:19.976Z,0.90
2019-02-15T22:05:48.847Z,0.90
2019-02-15T22:08:17.653Z,0.90
2019-02-15T22:10:46.441Z,0.90
2019-02-15T22:13:15.230Z,0.90
2019-02-15T22:15:44.171Z,0.90
2019-02-15T22:18:13.020Z,0.80
2019-02-15T22:20:41.810Z,0.80
2019-02-15T22:23:10.622Z,0.90
2019-02-15T22:25:42.638Z,0.90
2019-02-15T22:28:11.799Z,0.90
2019-02-15T22:30:40.595Z,0.80
2019-02-15T22:33:09.397Z,0.70
2019-02-15T22:35:38.321Z,0.70
2019-02-15T22:38:07.120Z,0.70
2019-02-15T22:40:37.998Z,0.80
2019-02-15T22:43:09.686Z,0.80
2019-02-15T22:45:38.562Z,0.70
2019-02-15T22:48:07.423Z,0.60
2019-02-15T22:50:36.591Z,0.60
2019-02-15T22:53:05.496Z,0.60
2019-02-15T22:55:34.370Z,0.60
2019-02-15T22:58:04.675Z,0.60
2019-02-15T23:00:50.951Z,0.60
2019-02-15T23:03:22.166Z,0.70
2019-02-15T23:05:51.121Z,0.60
2019-02-15T23:08:20.062Z,0.50
2019-02-15T23:10:49.031Z,0.40
2019-02-15T23:13:18.107Z,0.50
2019-02-15T23:15:47.090Z,0.40
2019-02-15T23:18:15.973Z,0.40
2019-02-15T23:20:45.689Z,0.30
2019-02-15T23:23:14.791Z,0.20
2019-02-15T23:25:46.095Z,0.10
2019-02-15T23:28:14.956Z,0.00
2019-02-15T23:30:43.822Z,0.00
2019-02-15T23:33:12.938Z,0.00
2019-02-15T23:35:41.727Z,0.00
2019-02-15T23:38:10.567Z,0.00
2019-02-15T23:40:39.411Z,0.10
2019-02-15T23:43:08.275Z,0.10
2019-02-15T23:45:37.159Z,0.00
2019-02-15T23:48:05.946Z,0.00
2019-02-15T23:50:34.743Z,0.00
2019-02-15T23:53:03.662Z,0.00
2019-02-15T23:55:32.470Z,-0.10
2019-02-15T23:58:01.302Z,-0.10
